SACO/COR METAR and TAF weather

Enter ICAO airport designator
Station Type Date Time Source
SACO METAR 2019/05/20 10:00 UTC NOAA

SACO 201000Z 26003KT 9999 SCT025 BKN100 10/08 Q1015 NOSIG


Station Type Date Time Source
SACO Decoded METAR 2019/05/20 10:00 UTC NOAA

Cordoba Aerodrome, Argentina (SACO) 31-19S 064-13W 474M
May 20, 2019 - 06:00 AM EDT / 2019.05.20 1000 UTC
Wind: from the W (260 degrees) at 3 MPH (3 KT):0
Visibility: greater than 7 mile(s):0
Sky conditions: mostly cloudy
Temperature: 50 F (10 C)
Dew Point: 46 F (8 C)
Relative Humidity: 87%
Pressure (altimeter): 29.97 in. Hg (1015 hPa)
ob: SACO 201000Z 26003KT 9999 SCT025 BKN100 10/08 Q1015 NOSIG
cycle: 10

Station Type Date Time Source
SACO TAF 2019/05/20 06:15 UTC NOAA

TAF TAF SACO 200500Z 2006/2106 20005KT 9999 BKN030 TX15/2018Z TN05/2010Z
BECMG 2007/2009 18005KT 9999 BKN020
BECMG 2014/2017 18010KT 7000 OVC015

Example: see airport list